createdAt,value
2018-09-12T00:00:13.941Z,58.81
2018-09-12T00:02:42.350Z,58.12
2018-09-12T00:05:11.800Z,58.20
2018-09-12T00:07:40.265Z,58.23
2018-09-12T00:10:08.688Z,58.45
2018-09-12T00:12:37.081Z,57.77
2018-09-12T00:15:05.593Z,58.36
2018-09-12T00:17:34.016Z,57.93
2018-09-12T00:20:02.576Z,57.85
2018-09-12T00:22:30.965Z,58.37
2018-09-12T00:24:59.438Z,58.34
2018-09-12T00:27:27.853Z,58.81
2018-09-12T00:29:56.318Z,58.86
2018-09-12T00:32:24.747Z,58.63
2018-09-12T00:34:53.172Z,58.54
2018-09-12T00:37:21.577Z,58.63
2018-09-12T00:39:50.010Z,59.19
2018-09-12T00:42:18.409Z,58.97
2018-09-12T00:44:46.821Z,58.99
2018-09-12T00:47:15.228Z,58.62
2018-09-12T00:49:43.616Z,59.36
2018-09-12T00:52:12.029Z,58.91
2018-09-12T00:54:40.629Z,59.02
2018-09-12T00:57:09.112Z,59.04
2018-09-12T00:59:38.604Z,58.94
2018-09-12T01:02:07.034Z,58.32
2018-09-12T01:04:35.452Z,58.19
2018-09-12T01:07:03.960Z,58.82
2018-09-12T01:09:32.522Z,58.87
2018-09-12T01:12:00.942Z,59.02
2018-09-12T01:14:31.282Z,58.76
2018-09-12T01:17:00.199Z,58.66
2018-09-12T01:19:29.048Z,58.37
2018-09-12T01:21:57.508Z,58.97
2018-09-12T01:24:25.918Z,58.71
2018-09-12T01:26:54.413Z,59.14
2018-09-12T01:29:26.314Z,58.73
2018-09-12T01:31:54.874Z,58.27
2018-09-12T01:34:24.237Z,58.16
2018-09-12T01:36:52.785Z,58.91
2018-09-12T01:39:21.170Z,58.34
2018-09-12T01:41:49.591Z,58.56
2018-09-12T01:44:18.606Z,58.07
2018-09-12T01:46:46.991Z,58.01
2018-09-12T01:49:17.497Z,57.83
2018-09-12T01:51:46.845Z,57.68
2018-09-12T01:54:15.786Z,57.88
2018-09-12T01:56:44.189Z,58.51
2018-09-12T01:59:13.062Z,58.66
2018-09-12T02:01:41.829Z,58.64
2018-09-12T02:04:10.280Z,59.06
2018-09-12T02:06:38.731Z,58.80
2018-09-12T02:09:10.225Z,59.32
2018-09-12T02:11:38.700Z,59.51
2018-09-12T02:14:07.136Z,59.71
2018-09-12T02:16:35.550Z,59.78
2018-09-12T02:19:04.305Z,60.55
2018-09-12T02:21:32.704Z,60.68
2018-09-12T02:24:02.033Z,60.56
2018-09-12T02:26:30.485Z,60.44
2018-09-12T02:28:58.926Z,60.82
2018-09-12T02:31:27.318Z,60.86
2018-09-12T02:33:55.870Z,60.88
2018-09-12T02:36:28.649Z,60.80
2018-09-12T02:38:58.298Z,60.42
2018-09-12T02:41:26.697Z,60.18
2018-09-12T02:43:55.564Z,59.77
2018-09-12T02:46:24.111Z,59.57
2018-09-12T02:48:52.888Z,59.13
2018-09-12T02:51:21.344Z,59.01
2018-09-12T02:53:49.815Z,58.73
2018-09-12T02:56:18.484Z,58.80
2018-09-12T02:58:46.891Z,57.95
2018-09-12T03:01:15.702Z,58.30
2018-09-12T03:03:44.113Z,58.42
2018-09-12T03:06:12.557Z,58.75
2018-09-12T03:08:40.984Z,59.27
2018-09-12T03:11:09.446Z,59.16
2018-09-12T03:13:37.825Z,59.52
2018-09-12T03:16:06.285Z,59.69
2018-09-12T03:18:34.726Z,59.94
2018-09-12T03:21:03.802Z,60.06
2018-09-12T03:23:32.099Z,59.84
2018-09-12T03:26:00.524Z,59.63
2018-09-12T03:28:28.906Z,59.75
2018-09-12T03:30:57.366Z,59.30
2018-09-12T03:33:25.744Z,59.77
2018-09-12T03:35:54.133Z,59.52
2018-09-12T03:38:22.617Z,59.77
2018-09-12T03:40:50.986Z,59.68
2018-09-12T03:43:19.420Z,59.80
2018-09-12T03:45:47.814Z,59.97
2018-09-12T03:48:16.246Z,60.11
2018-09-12T03:50:44.626Z,60.29
2018-09-12T03:53:13.073Z,60.45
2018-09-12T03:55:41.461Z,60.52
2018-09-12T03:58:09.891Z,60.39
2018-09-12T04:00:38.297Z,60.40
2018-09-12T04:03:06.729Z,60.39
2018-09-12T04:05:35.125Z,60.65
2018-09-12T04:08:03.557Z,60.61
2018-09-12T04:10:31.960Z,60.57
2018-09-12T04:13:00.360Z,60.68
2018-09-12T04:15:28.754Z,60.77
2018-09-12T04:17:57.184Z,60.44
2018-09-12T04:20:25.584Z,60.72
2018-09-12T04:22:53.997Z,60.62
2018-09-12T04:25:22.388Z,60.74
2018-09-12T04:27:50.810Z,60.18
2018-09-12T04:30:19.200Z,60.44
2018-09-12T04:32:47.609Z,60.26
2018-09-12T04:35:15.977Z,60.37
2018-09-12T04:37:44.610Z,60.01
2018-09-12T04:40:13.106Z,59.73
2018-09-12T04:42:41.600Z,59.35
2018-09-12T04:45:09.925Z,59.02
2018-09-12T04:47:38.309Z,58.67
2018-09-12T04:50:06.806Z,58.46
2018-09-12T04:52:35.399Z,58.26
2018-09-12T04:55:03.998Z,58.59
2018-09-12T04:57:32.396Z,58.42
2018-09-12T05:00:00.926Z,58.32
2018-09-12T05:02:29.366Z,57.82
2018-09-12T05:04:57.826Z,58.08
2018-09-12T05:07:26.268Z,57.62
2018-09-12T05:09:54.751Z,57.52
2018-09-12T05:12:23.130Z,57.49
2018-09-12T05:14:51.589Z,57.27
2018-09-12T05:17:20.010Z,57.33
2018-09-12T05:19:50.526Z,57.48
2018-09-12T05:22:18.970Z,56.57
2018-09-12T05:24:47.373Z,56.77
2018-09-12T05:27:15.899Z,56.94
2018-09-12T05:29:44.336Z,57.27
2018-09-12T05:32:12.777Z,56.96
2018-09-12T05:34:41.159Z,57.46
2018-09-12T05:37:09.572Z,57.74
2018-09-12T05:39:37.970Z,57.73
2018-09-12T05:42:07.008Z,57.81
2018-09-12T05:44:35.404Z,57.89
2018-09-12T05:47:03.842Z,57.77
2018-09-12T05:49:32.258Z,58.13
2018-09-12T05:52:00.687Z,57.93
2018-09-12T05:54:29.059Z,57.66
2018-09-12T05:56:57.493Z,57.58
2018-09-12T05:59:25.936Z,57.46
2018-09-12T06:01:54.379Z,56.77
2018-09-12T06:04:22.778Z,56.78
2018-09-12T06:06:51.264Z,56.55
2018-09-12T06:09:19.671Z,56.42
2018-09-12T06:11:48.093Z,55.94
2018-09-12T06:14:16.512Z,56.36
2018-09-12T06:16:44.972Z,56.19
2018-09-12T06:19:13.373Z,56.14
2018-09-12T06:21:41.771Z,55.32
2018-09-12T06:24:10.201Z,55.08
2018-09-12T06:26:38.605Z,55.38
2018-09-12T06:29:07.025Z,54.58
2018-09-12T06:31:35.433Z,53.96
2018-09-12T06:34:03.993Z,54.39
2018-09-12T06:36:32.389Z,53.75
2018-09-12T06:39:00.837Z,54.64
2018-09-12T06:41:29.305Z,53.38
2018-09-12T06:43:57.729Z,53.86
2018-09-12T06:46:26.109Z,53.34
2018-09-12T06:48:54.561Z,53.11
2018-09-12T06:51:22.949Z,53.05
2018-09-12T06:53:51.386Z,52.41
2018-09-12T06:56:19.849Z,52.09
2018-09-12T06:58:48.286Z,52.07
2018-09-12T07:01:16.685Z,51.84
2018-09-12T07:03:45.121Z,50.90
2018-09-12T07:06:13.525Z,51.25
2018-09-12T07:08:42.009Z,49.85
2018-09-12T07:11:10.417Z,50.27
2018-09-12T07:13:38.825Z,49.98
2018-09-12T07:16:07.299Z,49.10
2018-09-12T07:18:35.695Z,48.48
2018-09-12T07:21:04.189Z,48.93
2018-09-12T07:23:32.641Z,48.03
2018-09-12T07:26:01.065Z,48.35
2018-09-12T07:28:29.464Z,48.37
2018-09-12T07:30:57.895Z,47.75
2018-09-12T07:33:26.264Z,47.67
2018-09-12T07:35:54.709Z,47.58
2018-09-12T07:38:23.102Z,46.88
2018-09-12T07:40:51.524Z,46.31
2018-09-12T07:43:19.913Z,45.71
2018-09-12T07:45:48.341Z,45.11
2018-09-12T07:48:16.736Z,44.66
2018-09-12T07:50:48.677Z,44.66
2018-09-12T07:53:17.733Z,45.36
2018-09-12T07:55:46.168Z,44.64
2018-09-12T07:58:14.619Z,44.14
2018-09-12T08:00:43.167Z,42.99
2018-09-12T08:03:11.533Z,43.73
2018-09-12T08:05:39.917Z,43.01
2018-09-12T08:08:08.426Z,43.05
2018-09-12T08:10:36.829Z,43.04
2018-09-12T08:13:05.285Z,43.41
2018-09-12T08:15:33.693Z,43.58
2018-09-12T08:18:02.726Z,42.83
2018-09-12T08:20:31.098Z,42.41
2018-09-12T08:22:59.521Z,42.14
2018-09-12T08:25:27.930Z,40.67
2018-09-12T08:27:56.374Z,40.52
2018-09-12T08:30:24.787Z,40.66
2018-09-12T08:32:53.226Z,41.43
2018-09-12T08:35:21.638Z,41.17
2018-09-12T08:37:50.050Z,41.00
2018-09-12T08:40:18.465Z,40.90
2018-09-12T08:42:46.890Z,40.68
2018-09-12T08:45:15.353Z,41.30
2018-09-12T08:47:43.791Z,40.14
2018-09-12T08:50:12.181Z,39.58
2018-09-12T08:52:40.667Z,39.02
2018-09-12T08:55:09.119Z,39.40
2018-09-12T08:57:37.562Z,38.65
2018-09-12T09:00:06.714Z,38.93
2018-09-12T09:02:35.138Z,38.19
2018-09-12T09:05:03.539Z,38.52
2018-09-12T09:07:31.987Z,37.82
2018-09-12T09:10:00.456Z,38.66
2018-09-12T09:12:28.840Z,37.37
2018-09-12T09:14:57.283Z,36.57
2018-09-12T09:17:25.741Z,36.16
2018-09-12T09:19:54.197Z,36.36
2018-09-12T09:22:22.599Z,36.17
2018-09-12T09:24:51.105Z,35.17
2018-09-12T09:27:19.514Z,35.64
2018-09-12T09:29:47.921Z,35.17
2018-09-12T09:32:16.331Z,35.32
2018-09-12T09:34:44.826Z,35.88
2018-09-12T09:37:13.229Z,35.36
2018-09-12T09:39:41.674Z,35.39
2018-09-12T09:42:10.068Z,35.11
2018-09-12T09:44:38.492Z,35.26
2018-09-12T09:47:06.894Z,34.65
2018-09-12T09:49:35.321Z,35.30
2018-09-12T09:52:03.695Z,34.00
2018-09-12T09:54:32.166Z,34.11
2018-09-12T09:57:00.552Z,34.42
2018-09-12T09:59:29.001Z,33.78
2018-09-12T10:02:02.814Z,34.21
2018-09-12T10:04:37.114Z,32.69
2018-09-12T10:07:11.168Z,32.52
2018-09-12T10:09:39.645Z,33.54
2018-09-12T10:12:08.027Z,34.30
2018-09-12T10:14:36.438Z,34.20
2018-09-12T10:17:04.885Z,32.99
2018-09-12T10:19:33.314Z,32.64
2018-09-12T10:22:02.054Z,33.68
2018-09-12T10:24:30.436Z,33.56
2018-09-12T10:26:58.879Z,33.55
2018-09-12T10:29:27.273Z,33.89
2018-09-12T10:31:55.717Z,33.96
2018-09-12T10:34:24.134Z,34.06
2018-09-12T10:36:52.562Z,33.31
2018-09-12T10:39:21.013Z,32.66
2018-09-12T10:41:49.499Z,32.31
2018-09-12T10:44:17.934Z,32.41
2018-09-12T10:46:46.401Z,33.37
2018-09-12T10:49:14.807Z,33.37
2018-09-12T10:51:43.205Z,34.23
2018-09-12T10:54:11.670Z,33.93
2018-09-12T10:56:40.092Z,33.35
2018-09-12T10:59:08.552Z,33.80
2018-09-12T11:01:36.932Z,34.12
2018-09-12T11:04:05.436Z,33.50
2018-09-12T11:06:33.925Z,34.18
2018-09-12T11:09:02.996Z,33.36
2018-09-12T11:11:31.405Z,33.63
2018-09-12T11:13:59.821Z,33.69
2018-09-12T11:16:28.266Z,33.79
2018-09-12T11:18:56.716Z,34.15
2018-09-12T11:21:25.113Z,33.82
2018-09-12T11:23:53.563Z,33.09
2018-09-12T11:26:22.006Z,33.29
2018-09-12T11:28:51.068Z,33.67
2018-09-12T11:31:19.481Z,33.73
2018-09-12T11:33:47.939Z,33.25
2018-09-12T11:36:16.379Z,33.41
2018-09-12T11:38:45.045Z,33.58
2018-09-12T11:41:13.448Z,32.94
2018-09-12T11:43:41.925Z,33.27
2018-09-12T11:46:10.413Z,33.66
2018-09-12T11:48:38.823Z,32.98
2018-09-12T11:51:07.305Z,33.19
2018-09-12T11:53:35.711Z,32.42
2018-09-12T11:56:04.340Z,32.05
2018-09-12T11:58:32.731Z,31.60
2018-09-12T12:01:01.169Z,31.82
2018-09-12T12:03:29.649Z,31.46
2018-09-12T12:05:58.123Z,31.83
2018-09-12T12:08:26.593Z,32.63
2018-09-12T12:10:55.060Z,32.79
2018-09-12T12:13:23.478Z,33.48
2018-09-12T12:15:51.907Z,32.96
2018-09-12T12:18:20.281Z,32.65
2018-09-12T12:20:48.742Z,32.02
2018-09-12T12:23:17.220Z,32.71
2018-09-12T12:25:45.589Z,32.46
2018-09-12T12:28:14.005Z,32.99
2018-09-12T12:30:42.473Z,32.88
2018-09-12T12:33:10.854Z,33.19
2018-09-12T12:35:39.450Z,33.32
2018-09-12T12:38:07.857Z,33.38
2018-09-12T12:40:36.233Z,32.86
2018-09-12T12:43:05.013Z,32.55
2018-09-12T12:45:33.478Z,33.10
2018-09-12T12:48:01.923Z,32.92
2018-09-12T12:50:30.313Z,33.08
2018-09-12T12:52:59.793Z,33.25
2018-09-12T12:55:28.190Z,32.85
2018-09-12T12:57:56.649Z,33.57
2018-09-12T13:00:25.069Z,32.88
2018-09-12T13:02:53.819Z,33.04
2018-09-12T13:05:22.263Z,32.58
2018-09-12T13:07:50.792Z,33.01
2018-09-12T13:10:19.213Z,33.44
2018-09-12T13:12:47.892Z,33.65
2018-09-12T13:15:16.301Z,33.04
2018-09-12T13:17:44.863Z,32.70
2018-09-12T13:20:13.246Z,33.37
2018-09-12T13:22:41.661Z,32.54
2018-09-12T13:25:10.054Z,31.87
2018-09-12T13:27:38.625Z,31.90
2018-09-12T13:30:07.005Z,32.69
2018-09-12T13:32:35.441Z,32.02
2018-09-12T13:35:03.921Z,33.07
2018-09-12T13:37:32.877Z,33.23
2018-09-12T13:40:01.293Z,31.84
2018-09-12T13:42:29.680Z,31.75
2018-09-12T13:44:58.141Z,32.13
2018-09-12T13:47:26.525Z,32.02
2018-09-12T13:49:54.967Z,32.02
2018-09-12T13:52:23.353Z,31.89
2018-09-12T13:54:51.791Z,32.47
2018-09-12T13:57:20.201Z,31.88
2018-09-12T13:59:48.648Z,30.98
2018-09-12T14:02:17.041Z,30.91
2018-09-12T14:04:45.482Z,31.33
2018-09-12T14:07:13.913Z,31.35
2018-09-12T14:09:42.351Z,31.33
2018-09-12T14:12:11.441Z,29.92
2018-09-12T14:14:39.884Z,30.53
2018-09-12T14:17:08.461Z,29.86
2018-09-12T14:19:36.872Z,30.02
2018-09-12T14:22:05.265Z,30.22
2018-09-12T14:24:33.842Z,29.74
2018-09-12T14:27:02.244Z,28.81
2018-09-12T14:29:30.668Z,29.43
2018-09-12T14:31:59.073Z,28.71
2018-09-12T14:34:27.437Z,29.33
2018-09-12T14:36:55.833Z,28.77
2018-09-12T14:39:24.241Z,28.02
2018-09-12T14:41:52.669Z,28.48
2018-09-12T14:44:21.063Z,28.29
2018-09-12T14:46:49.505Z,28.91
2018-09-12T14:49:17.881Z,28.01
2018-09-12T14:51:46.280Z,27.87
2018-09-12T14:54:14.731Z,27.52
2018-09-12T14:56:43.166Z,25.23
2018-09-12T14:59:11.653Z,25.75
2018-09-12T15:01:40.115Z,25.72
2018-09-12T15:04:08.481Z,24.90
2018-09-12T15:06:36.881Z,24.74
2018-09-12T15:09:08.973Z,24.30
2018-09-12T15:11:37.388Z,25.04
2018-09-12T15:14:12.386Z,24.15
2018-09-12T15:16:40.821Z,23.32
2018-09-12T15:19:09.220Z,23.72
2018-09-12T15:21:37.645Z,21.20
2018-09-12T15:24:06.037Z,21.21
2018-09-12T15:26:34.413Z,18.70
2018-09-12T15:29:03.568Z,18.14
2018-09-12T15:31:31.947Z,16.89
2018-09-12T15:34:00.368Z,16.15
2018-09-12T15:36:28.762Z,16.23
2018-09-12T15:38:57.177Z,15.64
2018-09-12T15:41:25.608Z,14.53
2018-09-12T15:43:54.023Z,12.76
2018-09-12T15:46:22.405Z,11.83
2018-09-12T15:48:50.801Z,12.17
2018-09-12T15:51:19.178Z,12.05
2018-09-12T15:53:47.861Z,11.64
2018-09-12T15:56:16.258Z,12.30
2018-09-12T15:58:44.673Z,12.61
2018-09-12T16:01:13.042Z,13.05
2018-09-12T16:03:41.506Z,13.37
2018-09-12T16:06:09.903Z,14.16
2018-09-12T16:08:38.401Z,13.83
2018-09-12T16:11:06.797Z,15.80
2018-09-12T16:13:35.217Z,17.81
2018-09-12T16:16:03.646Z,19.76
2018-09-12T16:18:32.068Z,19.22
2018-09-12T16:21:00.469Z,18.22
2018-09-12T16:23:28.881Z,17.26
2018-09-12T16:25:57.453Z,17.07
2018-09-12T16:28:25.824Z,18.46
2018-09-12T16:30:54.252Z,19.14
2018-09-12T16:33:22.641Z,19.26
2018-09-12T16:35:51.113Z,21.24
2018-09-12T16:38:19.586Z,23.09
2018-09-12T16:40:48.048Z,24.65
2018-09-12T16:43:16.444Z,25.28
2018-09-12T16:45:44.913Z,26.74
2018-09-12T16:48:13.304Z,27.39
2018-09-12T16:50:42.356Z,27.97
2018-09-12T16:53:10.698Z,28.20
2018-09-12T16:55:39.124Z,29.18
2018-09-12T16:58:07.547Z,29.90
2018-09-12T17:00:35.985Z,30.31
2018-09-12T17:03:04.413Z,30.07
2018-09-12T17:05:32.837Z,31.53
2018-09-12T17:08:02.045Z,31.78
2018-09-12T17:10:30.469Z,31.31
2018-09-12T17:12:58.862Z,31.25
2018-09-12T17:15:27.251Z,31.84
2018-09-12T17:17:55.664Z,32.35
2018-09-12T17:20:24.321Z,32.92
2018-09-12T17:22:52.733Z,32.32
2018-09-12T17:25:21.096Z,32.81
2018-09-12T17:27:49.505Z,33.22
2018-09-12T17:30:17.901Z,32.83
2018-09-12T17:32:46.309Z,33.46
2018-09-12T17:35:15.521Z,33.26
2018-09-12T17:37:43.992Z,33.95
2018-09-12T17:40:12.417Z,33.52
2018-09-12T17:42:40.829Z,34.35
2018-09-12T17:45:09.341Z,34.16
2018-09-12T17:47:38.098Z,34.84
2018-09-12T17:50:06.710Z,34.66
2018-09-12T17:52:35.143Z,35.81
2018-09-12T17:55:03.588Z,35.91
2018-09-12T17:57:32.093Z,36.88
2018-09-12T18:00:00.593Z,36.48
2018-09-12T18:02:29.097Z,37.39
2018-09-12T18:04:57.488Z,37.08
2018-09-12T18:07:25.961Z,37.37
2018-09-12T18:09:54.411Z,37.52
2018-09-12T18:14:57.406Z,38.24
2018-09-12T18:17:25.844Z,38.86
2018-09-12T18:19:54.241Z,38.77
2018-09-12T18:22:22.616Z,39.16
2018-09-12T18:24:51.159Z,39.79
2018-09-12T18:27:19.506Z,38.70
2018-09-12T18:29:47.977Z,38.93
2018-09-12T18:32:16.374Z,39.56
2018-09-12T18:34:44.885Z,39.05
2018-09-12T18:37:13.325Z,39.55
2018-09-12T18:39:41.721Z,40.10
2018-09-12T18:42:10.111Z,39.59
2018-09-12T18:44:38.537Z,39.34
2018-09-12T18:47:06.941Z,40.03
2018-09-12T18:49:35.341Z,40.14
2018-09-12T18:52:03.738Z,40.30
2018-09-12T18:54:32.132Z,39.98
2018-09-12T18:57:00.540Z,39.90
2018-09-12T18:59:28.998Z,40.35
2018-09-12T19:01:57.421Z,40.77
2018-09-12T19:04:25.845Z,40.98
2018-09-12T19:06:54.357Z,41.29
2018-09-12T19:09:22.702Z,41.37
2018-09-12T19:11:51.121Z,41.09
2018-09-12T19:14:19.497Z,42.25
2018-09-12T19:16:47.929Z,41.68
2018-09-12T19:19:16.309Z,41.50
2018-09-12T19:21:44.745Z,41.18
2018-09-12T19:24:13.184Z,42.30
2018-09-12T19:26:41.613Z,43.17
2018-09-12T19:29:09.985Z,43.01
2018-09-12T19:31:38.409Z,43.45
2018-09-12T19:34:06.815Z,42.95
2018-09-12T19:36:35.346Z,44.14
2018-09-12T19:39:04.075Z,44.35
2018-09-12T19:41:32.486Z,44.30
2018-09-12T19:44:00.861Z,43.28
2018-09-12T19:46:29.273Z,42.83
2018-09-12T19:48:57.662Z,42.84
2018-09-12T19:51:26.269Z,44.35
2018-09-12T19:53:54.747Z,43.53
2018-09-12T19:56:23.313Z,43.50
2018-09-12T19:58:51.728Z,44.72
2018-09-12T20:01:20.190Z,43.28
2018-09-12T20:03:48.616Z,43.69
2018-09-12T20:06:16.997Z,44.12
2018-09-12T20:08:45.569Z,44.29
2018-09-12T20:11:13.957Z,44.43
2018-09-12T20:13:42.444Z,44.60
2018-09-12T20:16:10.952Z,43.86
2018-09-12T20:18:39.397Z,44.60
2018-09-12T20:21:07.813Z,44.63
2018-09-12T20:23:36.379Z,44.50
2018-09-12T20:26:05.052Z,44.77
2018-09-12T20:28:41.872Z,45.12
2018-09-12T20:31:10.667Z,43.90
2018-09-12T20:33:39.872Z,44.62
2018-09-12T20:36:08.373Z,44.62
2018-09-12T20:38:36.891Z,44.48
2018-09-12T20:41:05.865Z,44.65
2018-09-12T20:43:34.551Z,45.62
2018-09-12T20:46:03.727Z,45.34
2018-09-12T20:48:32.209Z,44.68
2018-09-12T20:51:01.976Z,45.25
2018-09-12T20:53:30.435Z,45.56
2018-09-12T20:55:58.829Z,45.56
2018-09-12T20:58:27.260Z,46.17
2018-09-12T21:00:55.754Z,45.58
2018-09-12T21:03:24.138Z,45.99
2018-09-12T21:05:52.741Z,46.43
2018-09-12T21:11:23.722Z,46.27
2018-09-12T21:13:52.130Z,46.78
2018-09-12T21:16:20.566Z,46.55
2018-09-12T21:18:49.032Z,46.31
2018-09-12T21:21:17.495Z,46.20
2018-09-12T21:23:46.100Z,46.78
2018-09-12T21:26:14.580Z,46.56
2018-09-12T21:28:43.082Z,46.62
2018-09-12T21:31:11.565Z,47.60
2018-09-12T21:33:43.017Z,47.85
2018-09-12T21:38:38.951Z,48.92
2018-09-12T21:41:07.650Z,48.74
2018-09-12T21:43:36.111Z,49.80
2018-09-12T21:46:04.606Z,50.00
2018-09-12T21:48:33.649Z,49.91
2018-09-12T21:51:02.471Z,50.49
2018-09-12T21:53:31.086Z,50.03
2018-09-12T21:55:59.713Z,50.29
2018-09-12T21:58:28.199Z,50.71
2018-09-12T22:00:56.689Z,50.58
2018-09-12T22:03:25.104Z,51.04
2018-09-12T22:05:53.632Z,50.78
2018-09-12T22:08:22.237Z,50.90
2018-09-12T22:10:50.746Z,50.60
2018-09-12T22:13:19.465Z,51.19
2018-09-12T22:15:47.937Z,50.87
2018-09-12T22:18:17.514Z,50.14
2018-09-12T22:20:45.955Z,50.76
2018-09-12T22:23:14.487Z,51.07
2018-09-12T22:25:42.934Z,51.02
2018-09-12T22:28:11.447Z,51.56
2018-09-12T22:30:40.126Z,51.82
2018-09-12T22:33:08.658Z,52.27
2018-09-12T22:35:37.065Z,53.75
2018-09-12T22:38:05.847Z,53.35
2018-09-12T22:40:34.311Z,53.58
2018-09-12T22:43:03.558Z,53.33
2018-09-12T22:45:32.138Z,52.63
2018-09-12T22:48:00.948Z,53.18
2018-09-12T22:50:29.405Z,53.25
2018-09-12T22:52:57.838Z,53.55
2018-09-12T22:55:32.536Z,54.22
2018-09-12T22:58:01.035Z,53.39
2018-09-12T23:00:29.577Z,53.47
2018-09-12T23:02:58.001Z,53.78
2018-09-12T23:05:26.458Z,53.35
2018-09-12T23:07:54.882Z,53.16
2018-09-12T23:10:23.342Z,52.92
2018-09-12T23:12:51.755Z,52.53
2018-09-12T23:15:20.214Z,52.82
2018-09-12T23:17:48.642Z,52.82
2018-09-12T23:20:17.124Z,53.09
2018-09-12T23:22:45.537Z,53.07
2018-09-12T23:25:14.007Z,53.53
2018-09-12T23:27:42.406Z,53.52
2018-09-12T23:30:10.858Z,53.53
2018-09-12T23:32:39.277Z,52.98
2018-09-12T23:35:07.762Z,52.87
2018-09-12T23:37:36.175Z,52.74
2018-09-12T23:40:04.646Z,52.77
2018-09-12T23:42:33.114Z,53.40
2018-09-12T23:45:01.991Z,53.35
2018-09-12T23:47:30.393Z,52.27
2018-09-12T23:49:58.849Z,53.00
2018-09-12T23:52:27.281Z,52.97
2018-09-12T23:54:55.717Z,53.85
2018-09-12T23:57:24.094Z,53.37
2018-09-12T23:59:52.481Z,52.72
